sensor_id;sensor_type;location;lat;lon;timestamp;temperature;humidity
14877;DHT22;22152;48.158;17.118;2023-03-15T00:01:17;9.60;59.50
14877;DHT22;22152;48.158;17.118;2023-03-15T00:03:51;9.60;59.50
14877;DHT22;22152;48.158;17.118;2023-03-15T00:06:43;9.70;59.60
14877;DHT22;22152;48.158;17.118;2023-03-15T00:09:16;9.60;59.10
14877;DHT22;22152;48.158;17.118;2023-03-15T00:12:08;9.70;59.10
14877;DHT22;22152;48.158;17.118;2023-03-15T00:14:43;9.60;58.90
14877;DHT22;22152;48.158;17.118;2023-03-15T00:17:35;9.60;58.60
14877;DHT22;22152;48.158;17.118;2023-03-15T00:20:08;9.60;59.30
14877;DHT22;22152;48.158;17.118;2023-03-15T00:23:04;9.60;58.50
14877;DHT22;22152;48.158;17.118;2023-03-15T00:25:37;9.60;58.50
14877;DHT22;22152;48.158;17.118;2023-03-15T00:28:29;9.60;58.50
14877;DHT22;22152;48.158;17.118;2023-03-15T00:31:08;9.60;58.30
14877;DHT22;22152;48.158;17.118;2023-03-15T00:34:03;9.70;58.30
14877;DHT22;22152;48.158;17.118;2023-03-15T00:36:36;9.70;57.90
14877;DHT22;22152;48.158;17.118;2023-03-15T00:39:29;9.80;58.00
14877;DHT22;22152;48.158;17.118;2023-03-15T00:42:02;9.80;57.90
14877;DHT22;22152;48.158;17.118;2023-03-15T00:44:54;9.90;58.10
14877;DHT22;22152;48.158;17.118;2023-03-15T00:47:28;9.90;58.10
14877;DHT22;22152;48.158;17.118;2023-03-15T00:50:22;9.90;58.20
14877;DHT22;22152;48.158;17.118;2023-03-15T00:52:54;9.90;59.00
14877;DHT22;22152;48.158;17.118;2023-03-15T00:55:47;9.90;59.70
14877;DHT22;22152;48.158;17.118;2023-03-15T00:58:20;9.80;62.20
14877;DHT22;22152;48.158;17.118;2023-03-15T01:01:15;9.70;63.50
14877;DHT22;22152;48.158;17.118;2023-03-15T01:03:49;9.60;63.30
14877;DHT22;22152;48.158;17.118;2023-03-15T01:06:42;9.50;63.10
14877;DHT22;22152;48.158;17.118;2023-03-15T01:09:15;9.50;63.60
14877;DHT22;22152;48.158;17.118;2023-03-15T01:12:07;9.50;63.80
14877;DHT22;22152;48.158;17.118;2023-03-15T01:14:40;9.40;63.80
14877;DHT22;22152;48.158;17.118;2023-03-15T01:17:33;9.30;64.00
14877;DHT22;22152;48.158;17.118;2023-03-15T01:20:06;9.20;64.00
14877;DHT22;22152;48.158;17.118;2023-03-15T01:23:00;9.10;64.00
14877;DHT22;22152;48.158;17.118;2023-03-15T01:25:33;9.00;64.20
14877;DHT22;22152;48.158;17.118;2023-03-15T01:28:27;8.90;64.00
14877;DHT22;22152;48.158;17.118;2023-03-15T01:30:59;8.80;63.80
14877;DHT22;22152;48.158;17.118;2023-03-15T01:33:52;8.70;63.90
14877;DHT22;22152;48.158;17.118;2023-03-15T01:36:34;8.70;63.80
14877;DHT22;22152;48.158;17.118;2023-03-15T01:39:20;8.70;63.60
14877;DHT22;22152;48.158;17.118;2023-03-15T01:42:01;8.70;63.60
14877;DHT22;22152;48.158;17.118;2023-03-15T01:47:33;8.60;63.30
14877;DHT22;22152;48.158;17.118;2023-03-15T01:50:19;8.50;63.30
14877;DHT22;22152;48.158;17.118;2023-03-15T01:53:02;8.50;63.20
14877;DHT22;22152;48.158;17.118;2023-03-15T01:55:49;8.40;62.90
14877;DHT22;22152;48.158;17.118;2023-03-15T01:58:40;8.40;63.20
14877;DHT22;22152;48.158;17.118;2023-03-15T02:01:28;8.20;62.90
14877;DHT22;22152;48.158;17.118;2023-03-15T02:04:11;8.20;63.20
14877;DHT22;22152;48.158;17.118;2023-03-15T02:07:03;8.20;63.40
14877;DHT22;22152;48.158;17.118;2023-03-15T02:10:22;8.20;63.10
14877;DHT22;22152;48.158;17.118;2023-03-15T02:13:10;8.00;63.40
14877;DHT22;22152;48.158;17.118;2023-03-15T02:15:58;8.00;63.50
14877;DHT22;22152;48.158;17.118;2023-03-15T02:18:57;8.00;63.40
14877;DHT22;22152;48.158;17.118;2023-03-15T02:24:52;7.90;63.00
14877;DHT22;22152;48.158;17.118;2023-03-15T02:27:32;7.80;63.00
14877;DHT22;22152;48.158;17.118;2023-03-15T02:30:27;7.80;63.10
14877;DHT22;22152;48.158;17.118;2023-03-15T02:33:05;7.80;63.20
14877;DHT22;22152;48.158;17.118;2023-03-15T02:36:18;7.70;63.70
14877;DHT22;22152;48.158;17.118;2023-03-15T02:38:59;7.60;63.10
14877;DHT22;22152;48.158;17.118;2023-03-15T02:41:51;7.50;63.10
14877;DHT22;22152;48.158;17.118;2023-03-15T02:44:37;7.50;63.30
14877;DHT22;22152;48.158;17.118;2023-03-15T02:47:28;7.50;63.30
14877;DHT22;22152;48.158;17.118;2023-03-15T02:50:10;7.50;63.00
14877;DHT22;22152;48.158;17.118;2023-03-15T02:52:57;7.50;63.10
14877;DHT22;22152;48.158;17.118;2023-03-15T02:55:35;7.50;63.10
14877;DHT22;22152;48.158;17.118;2023-03-15T02:58:22;7.40;63.10
14877;DHT22;22152;48.158;17.118;2023-03-15T03:01:02;7.30;63.20
14877;DHT22;22152;48.158;17.118;2023-03-15T03:03:50;7.30;63.60
14877;DHT22;22152;48.158;17.118;2023-03-15T03:06:29;7.30;63.80
14877;DHT22;22152;48.158;17.118;2023-03-15T03:09:17;7.30;63.90
14877;DHT22;22152;48.158;17.118;2023-03-15T03:11:56;7.30;63.80
14877;DHT22;22152;48.158;17.118;2023-03-15T03:14:43;7.40;63.80
14877;DHT22;22152;48.158;17.118;2023-03-15T03:17:36;7.30;64.30
14877;DHT22;22152;48.158;17.118;2023-03-15T03:20:10;7.30;63.70
14877;DHT22;22152;48.158;17.118;2023-03-15T03:23:04;7.20;63.60
14877;DHT22;22152;48.158;17.118;2023-03-15T03:25:36;7.20;63.80
14877;DHT22;22152;48.158;17.118;2023-03-15T03:28:31;7.20;63.70
14877;DHT22;22152;48.158;17.118;2023-03-15T03:31:04;7.20;63.60
14877;DHT22;22152;48.158;17.118;2023-03-15T03:33:57;7.20;63.80
14877;DHT22;22152;48.158;17.118;2023-03-15T03:36:30;7.10;63.50
14877;DHT22;22152;48.158;17.118;2023-03-15T03:39:26;7.10;63.60
14877;DHT22;22152;48.158;17.118;2023-03-15T03:42:00;7.10;63.40
14877;DHT22;22152;48.158;17.118;2023-03-15T03:44:53;7.00;63.40
14877;DHT22;22152;48.158;17.118;2023-03-15T03:47:31;7.10;63.20
14877;DHT22;22152;48.158;17.118;2023-03-15T03:50:24;7.00;63.30
14877;DHT22;22152;48.158;17.118;2023-03-15T03:52:57;7.10;63.20
14877;DHT22;22152;48.158;17.118;2023-03-15T03:55:50;7.10;62.80
14877;DHT22;22152;48.158;17.118;2023-03-15T03:58:23;7.00;63.00
14877;DHT22;22152;48.158;17.118;2023-03-15T04:01:37;7.00;62.70
14877;DHT22;22152;48.158;17.118;2023-03-15T04:04:11;7.00;62.60
14877;DHT22;22152;48.158;17.118;2023-03-15T04:07:03;7.00;62.70
14877;DHT22;22152;48.158;17.118;2023-03-15T04:09:39;7.10;62.70
14877;DHT22;22152;48.158;17.118;2023-03-15T04:12:31;7.00;62.50
14877;DHT22;22152;48.158;17.118;2023-03-15T04:15:04;7.00;62.80
14877;DHT22;22152;48.158;17.118;2023-03-15T04:17:57;6.90;62.90
14877;DHT22;22152;48.158;17.118;2023-03-15T04:20:33;6.90;63.20
14877;DHT22;22152;48.158;17.118;2023-03-15T04:23:31;6.90;63.20
14877;DHT22;22152;48.158;17.118;2023-03-15T04:26:29;6.90;63.30
14877;DHT22;22152;48.158;17.118;2023-03-15T04:29:44;6.80;63.30
14877;DHT22;22152;48.158;17.118;2023-03-15T04:32:39;6.80;63.30
14877;DHT22;22152;48.158;17.118;2023-03-15T04:35:40;6.80;63.20
14877;DHT22;22152;48.158;17.118;2023-03-15T04:38:24;6.70;63.00
14877;DHT22;22152;48.158;17.118;2023-03-15T04:41:52;6.70;63.10
14877;DHT22;22152;48.158;17.118;2023-03-15T04:44:31;6.70;63.30
14877;DHT22;22152;48.158;17.118;2023-03-15T04:47:51;6.70;63.30
14877;DHT22;22152;48.158;17.118;2023-03-15T04:50:47;6.70;63.20
14877;DHT22;22152;48.158;17.118;2023-03-15T04:53:57;6.70;63.00
14877;DHT22;22152;48.158;17.118;2023-03-15T04:56:49;6.70;62.80
14877;DHT22;22152;48.158;17.118;2023-03-15T04:59:54;6.70;63.20
14877;DHT22;22152;48.158;17.118;2023-03-15T05:02:53;6.70;62.10
14877;DHT22;22152;48.158;17.118;2023-03-15T05:06:09;6.60;61.30
14877;DHT22;22152;48.158;17.118;2023-03-15T05:08:58;6.60;60.60
14877;DHT22;22152;48.158;17.118;2023-03-15T05:12:09;6.50;60.50
14877;DHT22;22152;48.158;17.118;2023-03-15T05:15:02;6.60;60.00
14877;DHT22;22152;48.158;17.118;2023-03-15T05:18:04;6.60;59.60
14877;DHT22;22152;48.158;17.118;2023-03-15T05:20:54;6.60;59.00
14877;DHT22;22152;48.158;17.118;2023-03-15T05:24:07;6.60;58.80
14877;DHT22;22152;48.158;17.118;2023-03-15T05:27:07;6.60;58.70
14877;DHT22;22152;48.158;17.118;2023-03-15T05:29:49;6.50;58.60
14877;DHT22;22152;48.158;17.118;2023-03-15T05:33:11;6.60;58.50
14877;DHT22;22152;48.158;17.118;2023-03-15T05:36:08;6.50;58.20
14877;DHT22;22152;48.158;17.118;2023-03-15T05:39:25;6.50;58.30
14877;DHT22;22152;48.158;17.118;2023-03-15T05:42:15;6.50;58.30
14877;DHT22;22152;48.158;17.118;2023-03-15T05:45:21;6.50;58.40
14877;DHT22;22152;48.158;17.118;2023-03-15T05:48:11;6.50;58.40
14877;DHT22;22152;48.158;17.118;2023-03-15T05:51:22;6.50;58.40
14877;DHT22;22152;48.158;17.118;2023-03-15T05:54:18;6.50;58.60
14877;DHT22;22152;48.158;17.118;2023-03-15T05:57:24;6.50;58.40
14877;DHT22;22152;48.158;17.118;2023-03-15T06:00:29;6.50;58.60
14877;DHT22;22152;48.158;17.118;2023-03-15T06:03:27;6.70;58.40
14877;DHT22;22152;48.158;17.118;2023-03-15T06:06:16;6.70;58.70
14877;DHT22;22152;48.158;17.118;2023-03-15T06:09:02;6.70;57.90
14877;DHT22;22152;48.158;17.118;2023-03-15T06:11:41;6.70;57.50
14877;DHT22;22152;48.158;17.118;2023-03-15T06:14:27;6.70;57.80
14877;DHT22;22152;48.158;17.118;2023-03-15T06:17:18;6.70;57.50
14877;DHT22;22152;48.158;17.118;2023-03-15T06:20:11;6.70;57.80
14877;DHT22;22152;48.158;17.118;2023-03-15T06:22:44;6.80;57.80
14877;DHT22;22152;48.158;17.118;2023-03-15T06:25:51;6.90;58.20
14877;DHT22;22152;48.158;17.118;2023-03-15T06:28:23;6.90;57.40
14877;DHT22;22152;48.158;17.118;2023-03-15T06:31:16;6.90;57.50
14877;DHT22;22152;48.158;17.118;2023-03-15T06:33:55;6.90;57.30
14877;DHT22;22152;48.158;17.118;2023-03-15T06:36:48;7.10;57.30
14877;DHT22;22152;48.158;17.118;2023-03-15T06:39:21;7.10;56.90
14877;DHT22;22152;48.158;17.118;2023-03-15T06:42:14;7.10;56.70
14877;DHT22;22152;48.158;17.118;2023-03-15T06:44:54;7.10;57.00
14877;DHT22;22152;48.158;17.118;2023-03-15T06:47:41;7.10;56.70
14877;DHT22;22152;48.158;17.118;2023-03-15T06:50:21;7.20;56.90
14877;DHT22;22152;48.158;17.118;2023-03-15T06:53:07;7.40;56.70
14877;DHT22;22152;48.158;17.118;2023-03-15T06:55:46;7.50;56.40
14877;DHT22;22152;48.158;17.118;2023-03-15T06:58:32;7.50;56.10
14877;DHT22;22152;48.158;17.118;2023-03-15T07:01:12;7.40;56.00
14877;DHT22;22152;48.158;17.118;2023-03-15T07:03:59;7.30;56.10
14877;DHT22;22152;48.158;17.118;2023-03-15T07:06:38;7.40;56.20
14877;DHT22;22152;48.158;17.118;2023-03-15T07:09:24;7.40;56.00
14877;DHT22;22152;48.158;17.118;2023-03-15T07:12:03;7.60;55.90
14877;DHT22;22152;48.158;17.118;2023-03-15T07:14:50;7.70;55.80
14877;DHT22;22152;48.158;17.118;2023-03-15T07:17:43;7.90;55.30
14877;DHT22;22152;48.158;17.118;2023-03-15T07:20:15;8.10;55.30
14877;DHT22;22152;48.158;17.118;2023-03-15T07:23:08;8.20;54.90
14877;DHT22;22152;48.158;17.118;2023-03-15T07:25:40;8.30;54.50
14877;DHT22;22152;48.158;17.118;2023-03-15T07:28:33;8.40;54.20
14877;DHT22;22152;48.158;17.118;2023-03-15T07:31:05;8.40;54.20
14877;DHT22;22152;48.158;17.118;2023-03-15T07:33:58;8.50;54.00
14877;DHT22;22152;48.158;17.118;2023-03-15T07:36:30;8.50;54.00
14877;DHT22;22152;48.158;17.118;2023-03-15T07:39:23;8.60;53.80
14877;DHT22;22152;48.158;17.118;2023-03-15T07:41:58;8.70;53.50
14877;DHT22;22152;48.158;17.118;2023-03-15T07:44:54;8.90;53.80
14877;DHT22;22152;48.158;17.118;2023-03-15T07:47:33;9.30;53.70
14877;DHT22;22152;48.158;17.118;2023-03-15T07:50:19;9.60;52.90
14877;DHT22;22152;48.158;17.118;2023-03-15T07:52:58;9.70;52.00
14877;DHT22;22152;48.158;17.118;2023-03-15T07:55:46;9.70;51.80
14877;DHT22;22152;48.158;17.118;2023-03-15T07:58:26;9.80;51.50
14877;DHT22;22152;48.158;17.118;2023-03-15T08:01:12;9.90;51.60
14877;DHT22;22152;48.158;17.118;2023-03-15T08:03:51;9.90;51.30
14877;DHT22;22152;48.158;17.118;2023-03-15T08:06:37;9.80;51.00
14877;DHT22;22152;48.158;17.118;2023-03-15T08:09:16;9.60;51.30
14877;DHT22;22152;48.158;17.118;2023-03-15T08:12:02;9.80;51.20
14877;DHT22;22152;48.158;17.118;2023-03-15T08:14:41;9.90;51.20
14877;DHT22;22152;48.158;17.118;2023-03-15T08:17:34;10.10;50.10
14877;DHT22;22152;48.158;17.118;2023-03-15T08:20:27;10.10;49.50
14877;DHT22;22152;48.158;17.118;2023-03-15T08:23:00;10.20;49.30
14877;DHT22;22152;48.158;17.118;2023-03-15T08:25:55;10.30;49.10
14877;DHT22;22152;48.158;17.118;2023-03-15T08:28:28;10.50;48.60
14877;DHT22;22152;48.158;17.118;2023-03-15T08:31:21;10.60;48.10
14877;DHT22;22152;48.158;17.118;2023-03-15T08:33:54;10.60;47.90
14877;DHT22;22152;48.158;17.118;2023-03-15T08:36:47;10.70;47.30
14877;DHT22;22152;48.158;17.118;2023-03-15T08:39:20;10.50;47.30
14877;DHT22;22152;48.158;17.118;2023-03-15T08:42:13;10.50;47.10
14877;DHT22;22152;48.158;17.118;2023-03-15T08:44:45;10.80;47.50
14877;DHT22;22152;48.158;17.118;2023-03-15T08:47:38;11.10;46.90
14877;DHT22;22152;48.158;17.118;2023-03-15T08:50:17;11.10;45.60
14877;DHT22;22152;48.158;17.118;2023-03-15T08:53:03;11.00;45.60
14877;DHT22;22152;48.158;17.118;2023-03-15T08:55:42;11.30;44.80
14877;DHT22;22152;48.158;17.118;2023-03-15T08:58:28;11.40;44.60
14877;DHT22;22152;48.158;17.118;2023-03-15T09:01:10;11.60;44.20
14877;DHT22;22152;48.158;17.118;2023-03-15T09:03:57;11.50;43.80
14877;DHT22;22152;48.158;17.118;2023-03-15T09:06:36;11.40;44.00
14877;DHT22;22152;48.158;17.118;2023-03-15T09:09:22;11.50;44.10
14877;DHT22;22152;48.158;17.118;2023-03-15T09:12:01;11.50;43.30
14877;DHT22;22152;48.158;17.118;2023-03-15T09:14:47;11.50;43.50
14877;DHT22;22152;48.158;17.118;2023-03-15T09:17:33;11.60;42.90
14877;DHT22;22152;48.158;17.118;2023-03-15T09:20:26;11.50;42.30
14877;DHT22;22152;48.158;17.118;2023-03-15T09:22:59;11.30;42.00
14877;DHT22;22152;48.158;17.118;2023-03-15T09:25:52;11.20;42.80
14877;DHT22;22152;48.158;17.118;2023-03-15T09:28:24;11.30;41.90
14877;DHT22;22152;48.158;17.118;2023-03-15T09:31:17;11.40;41.30
14877;DHT22;22152;48.158;17.118;2023-03-15T09:33:49;11.60;41.10
14877;DHT22;22152;48.158;17.118;2023-03-15T09:36:42;11.70;41.10
14877;DHT22;22152;48.158;17.118;2023-03-15T09:39:14;11.40;40.90
14877;DHT22;22152;48.158;17.118;2023-03-15T09:42:17;11.50;41.20
14877;DHT22;22152;48.158;17.118;2023-03-15T09:45:03;11.60;41.40
14877;DHT22;22152;48.158;17.118;2023-03-15T09:48:22;11.60;40.80
14877;DHT22;22152;48.158;17.118;2023-03-15T09:51:13;11.70;40.00
14877;DHT22;22152;48.158;17.118;2023-03-15T09:54:04;11.80;39.80
14877;DHT22;22152;48.158;17.118;2023-03-15T09:56:55;11.80;39.10
14877;DHT22;22152;48.158;17.118;2023-03-15T09:59:48;11.80;38.90
14877;DHT22;22152;48.158;17.118;2023-03-15T10:02:30;12.00;39.00
14877;DHT22;22152;48.158;17.118;2023-03-15T10:05:21;12.20;38.60
14877;DHT22;22152;48.158;17.118;2023-03-15T10:08:04;12.10;38.20
14877;DHT22;22152;48.158;17.118;2023-03-15T10:14:26;12.20;38.50
14877;DHT22;22152;48.158;17.118;2023-03-15T10:21:04;12.20;38.00
14877;DHT22;22152;48.158;17.118;2023-03-15T10:23:49;12.00;38.00
14877;DHT22;22152;48.158;17.118;2023-03-15T10:26:45;12.10;38.10
14877;DHT22;22152;48.158;17.118;2023-03-15T10:29:20;12.30;37.50
14877;DHT22;22152;48.158;17.118;2023-03-15T10:32:18;12.30;37.40
14877;DHT22;22152;48.158;17.118;2023-03-15T10:34:55;12.30;37.00
14877;DHT22;22152;48.158;17.118;2023-03-15T10:37:50;12.30;36.40
14877;DHT22;22152;48.158;17.118;2023-03-15T10:40:58;12.20;36.40
14877;DHT22;22152;48.158;17.118;2023-03-15T10:44:06;12.20;36.20
14877;DHT22;22152;48.158;17.118;2023-03-15T10:47:32;12.00;36.30
14877;DHT22;22152;48.158;17.118;2023-03-15T10:50:30;12.00;36.70
14877;DHT22;22152;48.158;17.118;2023-03-15T10:53:16;11.90;36.70
14877;DHT22;22152;48.158;17.118;2023-03-15T10:56:12;11.80;36.80
14877;DHT22;22152;48.158;17.118;2023-03-15T10:59:00;11.70;37.30
14877;DHT22;22152;48.158;17.118;2023-03-15T11:01:47;11.50;36.90
14877;DHT22;22152;48.158;17.118;2023-03-15T11:04:29;11.30;37.00
14877;DHT22;22152;48.158;17.118;2023-03-15T11:07:15;11.20;37.30
14877;DHT22;22152;48.158;17.118;2023-03-15T11:09:59;11.00;37.20
14877;DHT22;22152;48.158;17.118;2023-03-15T11:12:46;10.90;37.80
14877;DHT22;22152;48.158;17.118;2023-03-15T11:15:32;10.80;38.20
14877;DHT22;22152;48.158;17.118;2023-03-15T11:21:16;10.70;38.60
14877;DHT22;22152;48.158;17.118;2023-03-15T11:24:29;10.90;38.90
14877;DHT22;22152;48.158;17.118;2023-03-15T11:27:10;11.10;38.70
14877;DHT22;22152;48.158;17.118;2023-03-15T11:30:11;11.30;38.40
14877;DHT22;22152;48.158;17.118;2023-03-15T11:32:45;11.50;38.30
14877;DHT22;22152;48.158;17.118;2023-03-15T11:35:42;11.70;38.40
14877;DHT22;22152;48.158;17.118;2023-03-15T11:38:38;12.00;38.00
14877;DHT22;22152;48.158;17.118;2023-03-15T11:41:43;12.20;37.60
14877;DHT22;22152;48.158;17.118;2023-03-15T11:44:32;12.30;36.90
14877;DHT22;22152;48.158;17.118;2023-03-15T11:47:39;12.30;36.50
14877;DHT22;22152;48.158;17.118;2023-03-15T11:50:15;12.40;36.40
14877;DHT22;22152;48.158;17.118;2023-03-15T11:53:11;12.30;36.30
14877;DHT22;22152;48.158;17.118;2023-03-15T11:55:52;12.50;36.40
14877;DHT22;22152;48.158;17.118;2023-03-15T11:58:41;12.80;35.50
14877;DHT22;22152;48.158;17.118;2023-03-15T12:01:24;13.00;34.60
14877;DHT22;22152;48.158;17.118;2023-03-15T12:04:39;13.20;34.10
14877;DHT22;22152;48.158;17.118;2023-03-15T12:10:23;13.40;33.40
14877;DHT22;22152;48.158;17.118;2023-03-15T12:13:23;13.50;32.40
14877;DHT22;22152;48.158;17.118;2023-03-15T12:16:11;13.60;31.50
14877;DHT22;22152;48.158;17.118;2023-03-15T12:19:15;13.60;30.70
14877;DHT22;22152;48.158;17.118;2023-03-15T12:21:52;13.40;30.50
14877;DHT22;22152;48.158;17.118;2023-03-15T12:24:48;13.10;30.40
14877;DHT22;22152;48.158;17.118;2023-03-15T12:27:20;13.20;30.90
14877;DHT22;22152;48.158;17.118;2023-03-15T12:32:56;13.20;30.50
14877;DHT22;22152;48.158;17.118;2023-03-15T12:35:49;13.20;30.40
14877;DHT22;22152;48.158;17.118;2023-03-15T12:38:23;13.30;30.80
14877;DHT22;22152;48.158;17.118;2023-03-15T12:41:52;13.50;30.60
14877;DHT22;22152;48.158;17.118;2023-03-15T12:44:37;13.50;30.70
14877;DHT22;22152;48.158;17.118;2023-03-15T12:48:16;13.60;30.80
14877;DHT22;22152;48.158;17.118;2023-03-15T12:53:43;13.40;30.10
14877;DHT22;22152;48.158;17.118;2023-03-15T12:56:29;13.10;30.00
14877;DHT22;22152;48.158;17.118;2023-03-15T12:59:48;13.10;30.40
14877;DHT22;22152;48.158;17.118;2023-03-15T13:02:37;13.10;30.00
14877;DHT22;22152;48.158;17.118;2023-03-15T13:05:45;13.20;30.10
14877;DHT22;22152;48.158;17.118;2023-03-15T13:12:07;13.30;30.00
14877;DHT22;22152;48.158;17.118;2023-03-15T13:15:11;13.20;29.50
14877;DHT22;22152;48.158;17.118;2023-03-15T13:18:17;13.30;30.00
14877;DHT22;22152;48.158;17.118;2023-03-15T13:21:39;13.50;30.50
14877;DHT22;22152;48.158;17.118;2023-03-15T13:24:21;13.50;29.90
14877;DHT22;22152;48.158;17.118;2023-03-15T13:27:25;13.50;30.10
14877;DHT22;22152;48.158;17.118;2023-03-15T13:30:47;13.40;30.00
14877;DHT22;22152;48.158;17.118;2023-03-15T13:33:46;13.40;30.60
14877;DHT22;22152;48.158;17.118;2023-03-15T13:36:19;13.50;30.30
14877;DHT22;22152;48.158;17.118;2023-03-15T13:39:26;13.50;30.00
14877;DHT22;22152;48.158;17.118;2023-03-15T13:42:03;13.40;30.10
14877;DHT22;22152;48.158;17.118;2023-03-15T13:47:44;13.20;30.70
14877;DHT22;22152;48.158;17.118;2023-03-15T13:50:38;13.20;30.90
14877;DHT22;22152;48.158;17.118;2023-03-15T13:53:13;13.20;30.80
14877;DHT22;22152;48.158;17.118;2023-03-15T13:56:30;13.10;31.20
14877;DHT22;22152;48.158;17.118;2023-03-15T13:59:11;13.00;30.60
14877;DHT22;22152;48.158;17.118;2023-03-15T14:01:58;12.80;30.60
14877;DHT22;22152;48.158;17.118;2023-03-15T14:04:40;12.70;30.50
14877;DHT22;22152;48.158;17.118;2023-03-15T14:07:35;12.50;30.90
14877;DHT22;22152;48.158;17.118;2023-03-15T14:10:36;12.50;31.00
14877;DHT22;22152;48.158;17.118;2023-03-15T14:13:50;12.50;30.70
14877;DHT22;22152;48.158;17.118;2023-03-15T14:16:45;12.40;30.60
14877;DHT22;22152;48.158;17.118;2023-03-15T14:19:39;12.20;29.60
14877;DHT22;22152;48.158;17.118;2023-03-15T14:22:17;12.10;29.40
14877;DHT22;22152;48.158;17.118;2023-03-15T14:25:22;12.10;29.80
14877;DHT22;22152;48.158;17.118;2023-03-15T14:27:59;12.00;29.80
14877;DHT22;22152;48.158;17.118;2023-03-15T14:30:56;11.90;29.90
14877;DHT22;22152;48.158;17.118;2023-03-15T14:33:32;11.60;30.40
14877;DHT22;22152;48.158;17.118;2023-03-15T14:36:46;11.60;31.00
14877;DHT22;22152;48.158;17.118;2023-03-15T14:42:31;11.70;31.70
14877;DHT22;22152;48.158;17.118;2023-03-15T14:45:03;11.70;32.10
14877;DHT22;22152;48.158;17.118;2023-03-15T14:47:59;11.80;32.00
14877;DHT22;22152;48.158;17.118;2023-03-15T14:50:40;11.80;31.90
14877;DHT22;22152;48.158;17.118;2023-03-15T14:53:35;11.70;32.10
14877;DHT22;22152;48.158;17.118;2023-03-15T14:56:12;11.60;32.60
14877;DHT22;22152;48.158;17.118;2023-03-15T14:59:12;11.70;32.90
14877;DHT22;22152;48.158;17.118;2023-03-15T15:01:56;11.70;32.30
14877;DHT22;22152;48.158;17.118;2023-03-15T15:04:43;11.90;32.50
14877;DHT22;22152;48.158;17.118;2023-03-15T15:07:26;11.90;32.00
14877;DHT22;22152;48.158;17.118;2023-03-15T15:10:12;11.80;31.90
14877;DHT22;22152;48.158;17.118;2023-03-15T15:12:51;11.70;32.00
14877;DHT22;22152;48.158;17.118;2023-03-15T15:15:37;11.50;32.20
14877;DHT22;22152;48.158;17.118;2023-03-15T15:18:24;11.40;32.60
14877;DHT22;22152;48.158;17.118;2023-03-15T15:21:27;11.20;33.50
14877;DHT22;22152;48.158;17.118;2023-03-15T15:24:14;11.00;33.60
14877;DHT22;22152;48.158;17.118;2023-03-15T15:27:09;10.80;33.80
14877;DHT22;22152;48.158;17.118;2023-03-15T15:29:42;10.50;34.30
14877;DHT22;22152;48.158;17.118;2023-03-15T15:32:35;10.30;34.70
14877;DHT22;22152;48.158;17.118;2023-03-15T15:35:07;10.20;34.90
14877;DHT22;22152;48.158;17.118;2023-03-15T15:38:01;10.20;34.90
14877;DHT22;22152;48.158;17.118;2023-03-15T15:40:33;10.20;34.90
14877;DHT22;22152;48.158;17.118;2023-03-15T15:43:25;10.20;34.90
14877;DHT22;22152;48.158;17.118;2023-03-15T15:45:58;10.40;35.10
14877;DHT22;22152;48.158;17.118;2023-03-15T15:48:51;10.50;35.10
14877;DHT22;22152;48.158;17.118;2023-03-15T15:51:44;10.40;34.90
14877;DHT22;22152;48.158;17.118;2023-03-15T15:54:38;10.40;35.10
14877;DHT22;22152;48.158;17.118;2023-03-15T15:57:10;10.30;35.10
14877;DHT22;22152;48.158;17.118;2023-03-15T16:00:11;10.30;35.00
14877;DHT22;22152;48.158;17.118;2023-03-15T16:03:01;10.30;35.10
14877;DHT22;22152;48.158;17.118;2023-03-15T16:05:55;10.40;35.50
14877;DHT22;22152;48.158;17.118;2023-03-15T16:08:49;10.50;35.50
14877;DHT22;22152;48.158;17.118;2023-03-15T16:11:23;10.60;35.30
14877;DHT22;22152;48.158;17.118;2023-03-15T16:14:16;10.60;35.20
14877;DHT22;22152;48.158;17.118;2023-03-15T16:16:49;10.60;35.40
14877;DHT22;22152;48.158;17.118;2023-03-15T16:19:41;10.50;35.40
14877;DHT22;22152;48.158;17.118;2023-03-15T16:22:14;10.50;35.50
14877;DHT22;22152;48.158;17.118;2023-03-15T16:25:13;10.40;35.50
14877;DHT22;22152;48.158;17.118;2023-03-15T16:27:52;10.30;35.70
14877;DHT22;22152;48.158;17.118;2023-03-15T16:30:47;10.20;35.90
14877;DHT22;22152;48.158;17.118;2023-03-15T16:33:20;10.10;36.00
14877;DHT22;22152;48.158;17.118;2023-03-15T16:36:21;10.00;36.10
14877;DHT22;22152;48.158;17.118;2023-03-15T16:38:54;9.90;37.40
14877;DHT22;22152;48.158;17.118;2023-03-15T16:41:47;9.70;37.50
14877;DHT22;22152;48.158;17.118;2023-03-15T16:44:20;9.50;37.80
14877;DHT22;22152;48.158;17.118;2023-03-15T16:47:12;9.40;38.00
14877;DHT22;22152;48.158;17.118;2023-03-15T16:49:45;9.30;38.50
14877;DHT22;22152;48.158;17.118;2023-03-15T16:52:38;9.10;38.60
14877;DHT22;22152;48.158;17.118;2023-03-15T16:55:14;9.00;39.00
14877;DHT22;22152;48.158;17.118;2023-03-15T16:58:14;8.90;39.30
14877;DHT22;22152;48.158;17.118;2023-03-15T17:00:48;8.80;39.70
14877;DHT22;22152;48.158;17.118;2023-03-15T17:03:41;8.70;39.90
14877;DHT22;22152;48.158;17.118;2023-03-15T17:06:19;8.60;40.20
14877;DHT22;22152;48.158;17.118;2023-03-15T17:09:23;8.60;40.40
14877;DHT22;22152;48.158;17.118;2023-03-15T17:11:55;8.50;40.40
14877;DHT22;22152;48.158;17.118;2023-03-15T17:14:48;8.50;40.60
14877;DHT22;22152;48.158;17.118;2023-03-15T17:17:21;8.40;40.90
14877;DHT22;22152;48.158;17.118;2023-03-15T17:20:14;8.30;41.00
14877;DHT22;22152;48.158;17.118;2023-03-15T17:22:54;8.20;41.30
14877;DHT22;22152;48.158;17.118;2023-03-15T17:25:49;8.10;41.50
14877;DHT22;22152;48.158;17.118;2023-03-15T17:28:22;8.10;41.90
14877;DHT22;22152;48.158;17.118;2023-03-15T17:31:20;8.00;41.90
14877;DHT22;22152;48.158;17.118;2023-03-15T17:33:54;7.90;42.50
14877;DHT22;22152;48.158;17.118;2023-03-15T17:36:47;7.80;42.50
14877;DHT22;22152;48.158;17.118;2023-03-15T17:39:20;7.80;42.80
14877;DHT22;22152;48.158;17.118;2023-03-15T17:42:14;7.70;43.00
14877;DHT22;22152;48.158;17.118;2023-03-15T17:44:47;7.60;43.50
14877;DHT22;22152;48.158;17.118;2023-03-15T17:47:39;7.50;43.70
14877;DHT22;22152;48.158;17.118;2023-03-15T17:50:12;7.40;44.40
14877;DHT22;22152;48.158;17.118;2023-03-15T17:53:14;7.30;44.70
14877;DHT22;22152;48.158;17.118;2023-03-15T17:55:48;7.10;45.50
14877;DHT22;22152;48.158;17.118;2023-03-15T17:58:42;7.00;45.70
14877;DHT22;22152;48.158;17.118;2023-03-15T18:01:20;6.90;46.20
14877;DHT22;22152;48.158;17.118;2023-03-15T18:04:15;6.80;46.60
14877;DHT22;22152;48.158;17.118;2023-03-15T18:06:48;6.70;47.00
14877;DHT22;22152;48.158;17.118;2023-03-15T18:09:40;6.60;47.10
14877;DHT22;22152;48.158;17.118;2023-03-15T18:12:13;6.60;47.80